Time;durP1;ratioP1;P1;durP2;ratioP2;P2;SDS_P1;SDS_P2;PMS_P1;PMS_P2;Temp;Humidity;BMP_temperature;BMP_pressure;BME280_temperature;BME280_humidity;BME280_pressure;Samples;Min_cycle;Max_cycle;Signal;HPM_P1;HPM_P2
2022/01/27 00:05:22;;;;;;;56.77;32.20;;;;;;;-7.40;100.00;99974.03;1531850;94;21158;-70
2022/01/27 00:10:53;;;;;;;57.93;34.13;;;;;;;-7.43;100.00;99975.45;1531719;94;21136;-71
2022/01/27 00:13:24;;;;;;;68.93;40.63;;;;;;;-7.44;100.00;99984.23;1531725;94;21121;-71
2022/01/27 00:15:59;;;;;;;59.77;36.47;;;;;;;-7.47;100.00;99980.41;1531677;94;21556;-71
2022/01/27 00:18:20;;;;;;;63.17;35.33;;;;;;;-7.50;100.00;99977.45;1512831;94;21071;-71
2022/01/27 00:20:49;;;;;;;65.80;35.23;;;;;;;-7.49;100.00;99969.98;1531707;94;21132;-71
2022/01/27 00:23:16;;;;;;;64.43;36.40;;;;;;;-7.48;100.00;99981.34;1531750;94;21174;-71
2022/01/27 00:25:43;;;;;;;60.73;33.70;;;;;;;-7.49;100.00;99975.23;1531356;94;21078;-71
2022/01/27 00:28:13;;;;;;;85.23;57.27;;;;;;;-7.51;100.00;99980.98;1531611;93;21123;-71
2022/01/27 00:30:40;;;;;;;74.47;52.20;;;;;;;-7.51;100.00;99980.98;1531091;93;21079;-71
2022/01/27 00:33:08;;;;;;;63.47;39.20;;;;;;;-7.52;100.00;99983.23;1531518;94;21084;-71
2022/01/27 00:35:36;;;;;;;63.90;36.43;;;;;;;-7.53;100.00;99985.91;1607376;86;21080;-71
2022/01/27 00:38:02;;;;;;;62.70;37.57;;;;;;;-7.55;100.00;99982.48;1626249;86;21063;-72
2022/01/27 00:40:30;;;;;;;82.50;48.67;;;;;;;-7.59;100.00;99978.27;1662742;85;21075;-71
2022/01/27 00:42:57;;;;;;;67.47;42.93;;;;;;;-7.60;100.00;99977.39;1669660;85;21065;-71
2022/01/27 00:45:29;;;;;;;58.93;35.20;;;;;;;-7.61;100.00;99976.14;1663872;85;21537;-71
2022/01/27 00:48:05;;;;;;;57.33;38.77;;;;;;;-7.62;100.00;99976.60;1678534;85;21055;-69
2022/01/27 00:50:35;;;;;;;58.20;39.10;;;;;;;-7.64;100.00;99968.78;1684274;85;21563;-70
2022/01/27 00:53:06;;;;;;;52.37;32.90;;;;;;;-7.65;100.00;99969.71;1683394;85;21058;-71
2022/01/27 00:55:40;;;;;;;52.67;33.10;;;;;;;-7.65;100.00;99968.83;1666066;85;21523;-71
2022/01/27 01:00:48;;;;;;;55.73;35.47;;;;;;;-7.66;100.00;99967.98;1636356;88;21065;-70
2022/01/27 01:03:22;;;;;;;48.27;28.40;;;;;;;-7.65;100.00;99971.45;1633325;88;21084;-71
2022/01/27 01:09:10;;;;;;;53.52;29.67;;;;;;;-7.67;100.00;99968.03;1608621;89;21072;-72
2022/01/27 01:15:56;;;;;;;69.70;34.77;;;;;;;-7.68;100.00;99958.00;1608858;89;21093;-72
2022/01/27 01:29:49;;;;;;;;;;;;;;;;;;;;;
2022/01/27 01:34:28;;;;;;;69.93;33.87;;;;;;;-7.85;100.00;99962.55;1536593;93;21084;-70
2022/01/27 01:37:05;;;;;;;58.20;29.93;;;;;;;-7.86;100.00;99967.86;1557477;90;21090;-71
2022/01/27 01:39:36;;;;;;;59.00;30.97;;;;;;;-7.87;100.00;99970.10;1535734;92;21140;-70
2022/01/27 01:42:06;;;;;;;60.63;30.27;;;;;;;-7.89;100.00;99973.24;1524454;93;21069;-71
2022/01/27 01:44:33;;;;;;;62.23;30.57;;;;;;;-7.90;100.00;99975.45;1536714;93;21069;-71
2022/01/27 01:47:00;;;;;;;57.80;29.80;;;;;;;-7.93;100.00;99966.38;1517780;93;21130;-71
2022/01/27 01:49:29;;;;;;;64.07;32.10;;;;;;;-7.94;100.00;99962.91;1536288;93;21100;-71
2022/01/27 01:51:59;;;;;;;65.97;33.33;;;;;;;-7.95;100.00;99969.08;1536192;93;21074;-71
2022/01/27 01:54:27;;;;;;;58.77;30.57;;;;;;;-7.94;100.00;99976.48;1507291;95;21097;-70
2022/01/27 01:56:55;;;;;;;61.30;31.67;;;;;;;-7.93;100.00;99973.81;1534718;91;21053;-72
2022/01/27 01:59:22;;;;;;;72.47;35.47;;;;;;;-7.92;100.00;99975.51;1562733;91;21065;-72
2022/01/27 02:01:49;;;;;;;64.40;34.03;;;;;;;-7.91;100.00;99977.70;1583073;91;21098;-72
2022/01/27 02:04:16;;;;;;;65.83;33.17;;;;;;;-7.90;100.00;99979.39;1587474;88;21004;-71
2022/01/27 02:06:52;;;;;;;63.57;33.30;;;;;;;-7.92;100.00;99982.06;1628033;88;21073;-71
2022/01/27 02:09:29;;;;;;;58.68;31.27;;;;;;;-7.92;100.00;99986.00;1611784;88;21097;-71
2022/01/27 02:20:06;;;;;;;67.20;35.10;;;;;;;-7.93;100.00;99982.12;1534057;92;21110;-69
2022/01/27 02:22:36;;;;;;;64.73;35.53;;;;;;;-7.95;100.00;99979.58;1534202;92;21030;-71
2022/01/27 02:25:05;;;;;;;67.80;34.23;;;;;;;-7.96;100.00;99979.16;1533968;92;21516;-70
2022/01/27 02:27:34;;;;;;;72.13;33.93;;;;;;;-7.96;100.00;99977.01;1556191;91;21105;-70
2022/01/27 02:30:01;;;;;;;68.60;33.17;;;;;;;-7.94;100.00;99973.86;1539457;92;21123;-70
2022/01/27 02:32:27;;;;;;;67.30;35.37;;;;;;;-7.93;100.00;99976.88;1539589;92;21078;-71
2022/01/27 02:34:54;;;;;;;71.13;41.07;;;;;;;-7.92;100.00;99974.66;1539525;92;21078;-70
2022/01/27 02:37:21;;;;;;;60.47;34.87;;;;;;;-7.93;100.00;99977.75;1538382;92;21069;-70
2022/01/27 02:39:48;;;;;;;55.93;30.63;;;;;;;-7.91;100.00;99975.92;1534976;92;21096;-70
2022/01/27 02:42:29;;;;;;;72.67;34.43;;;;;;;-7.88;100.00;99982.38;1547327;92;21114;-71
2022/01/27 02:45:08;;;;;;;59.27;33.67;;;;;;;-7.86;100.00;99986.23;1538388;92;21112;-72
2022/01/27 02:47:38;;;;;;;63.17;33.33;;;;;;;-7.86;100.00;99983.61;1549722;93;21135;-71
2022/01/27 02:50:07;;;;;;;61.00;35.10;;;;;;;-7.87;100.00;99985.85;1552866;90;21088;-71
2022/01/27 02:52:35;;;;;;;63.00;34.57;;;;;;;-7.89;100.00;99989.84;1601360;90;21542;-71
2022/01/27 02:55:02;;;;;;;60.27;32.07;;;;;;;-7.88;100.00;99985.44;1586654;86;21038;-70
2022/01/27 02:57:31;;;;;;;62.97;33.23;;;;;;;-7.87;100.00;99988.01;1664981;85;21049;-70
2022/01/27 02:59:58;;;;;;;63.27;33.27;;;;;;;-7.84;100.00;99998.88;1671100;86;21557;-71
2022/01/27 03:02:26;;;;;;;68.53;33.37;;;;;;;-7.85;100.00;99992.74;1654793;85;21071;-71
2022/01/27 03:04:54;;;;;;;68.10;34.77;;;;;;;-7.84;100.00;99993.16;1661265;85;21083;-71
2022/01/27 03:07:20;;;;;;;69.33;36.13;;;;;;;-7.83;100.00;99994.00;1651499;86;21106;-70
2022/01/27 03:09:50;;;;;;;71.40;36.13;;;;;;;-7.82;100.00;99990.48;1651341;86;21079;-71
2022/01/27 03:12:18;;;;;;;72.17;36.43;;;;;;;-7.78;100.00;99993.84;1651355;86;21032;-72
2022/01/27 03:14:45;;;;;;;81.53;38.60;;;;;;;-7.76;100.00;99997.27;1670617;85;21020;-71
2022/01/27 03:17:15;;;;;;;81.90;38.83;;;;;;;-7.74;100.00;100000.69;1670411;85;21080;-70
2022/01/27 03:19:42;;;;;;;83.20;41.43;;;;;;;-7.74;100.00;99997.59;1670161;85;21114;-70
2022/01/27 03:22:09;;;;;;;70.63;36.90;;;;;;;-7.74;100.00;99997.59;1651377;86;21060;-70
2022/01/27 03:24:38;;;;;;;70.07;37.27;;;;;;;-7.74;100.00;99996.75;1670335;86;21052;-71
2022/01/27 03:27:14;;;;;;;74.23;37.73;;;;;;;-7.73;100.00;99997.16;1656937;84;21069;-71
2022/01/27 03:29:39;;;;;;;76.60;37.90;;;;;;;-7.73;100.00;99995.85;1704677;84;21021;-71
2022/01/27 03:32:08;;;;;;;84.93;41.77;;;;;;;-7.69;100.00;100000.06;1707157;84;20997;-71
2022/01/27 03:34:38;;;;;;;81.87;40.90;;;;;;;-7.68;100.00;100001.33;1707058;84;21037;-71
2022/01/27 03:37:05;;;;;;;79.00;38.20;;;;;;;-7.66;100.00;100008.69;1689147;84;21096;-71
2022/01/27 03:39:32;;;;;;;77.70;39.00;;;;;;;-7.67;100.00;100001.70;1689032;84;21057;-71
2022/01/27 03:42:00;;;;;;;65.90;36.30;;;;;;;-7.67;100.00;100003.48;1688855;84;21553;-70
2022/01/27 03:44:29;;;;;;;89.07;42.13;;;;;;;-7.67;100.00;100013.52;1706142;84;22329;-71
2022/01/27 03:46:56;;;;;;;72.80;37.13;;;;;;;-7.66;100.00;100010.47;1697610;85;20983;-70
2022/01/27 03:49:23;;;;;;;67.70;35.83;;;;;;;-7.66;100.00;100008.69;1687530;85;21007;-70
2022/01/27 03:51:52;;;;;;;62.50;33.23;;;;;;;-7.64;100.00;100009.95;1697282;84;21105;-71
2022/01/27 03:54:19;;;;;;;80.40;37.67;;;;;;;-7.64;100.00;100004.70;1697136;83;21042;-70
2022/01/27 03:56:47;;;;;;;57.90;32.93;;;;;;;-7.62;100.00;100009.89;1696956;85;21522;-72
2022/01/27 03:59:14;;;;;;;57.33;31.93;;;;;;;-7.65;100.00;100006.47;1687134;85;20982;-72
2022/01/27 04:01:41;;;;;;;82.70;38.67;;;;;;;-7.66;100.00;100010.47;1687406;85;21018;-72
2022/01/27 04:04:09;;;;;;;65.83;34.77;;;;;;;-7.68;100.00;100010.98;1687367;85;21025;-68
2022/01/27 04:06:40;;;;;;;63.17;31.20;;;;;;;-7.67;100.00;100012.67;1697255;85;21030;-69
2022/01/27 04:09:09;;;;;;;53.77;29.03;;;;;;;-7.66;100.00;100011.78;1697529;85;21042;-71
2022/01/27 04:11:39;;;;;;;56.93;29.33;;;;;;;-7.69;100.00;100004.85;1697417;85;21549;-70
2022/01/27 04:14:07;;;;;;;52.77;26.83;;;;;;;-7.72;100.00;100011.55;1687394;85;21082;-71
2022/01/27 04:16:42;;;;;;;57.77;29.80;;;;;;;-7.74;100.00;100012.50;1697358;84;22151;-71
2022/01/27 04:19:10;;;;;;;60.57;30.50;;;;;;;-7.76;100.00;100019.12;1697543;85;21065;-71
2022/01/27 04:21:37;;;;;;;60.63;33.07;;;;;;;-7.78;100.00;100014.85;1687547;85;21029;-71
2022/01/27 04:24:06;;;;;;;71.80;36.53;;;;;;;-7.80;100.00;100024.55;1687341;85;21076;-69
2022/01/27 04:26:42;;;;;;;66.57;35.77;;;;;;;-7.84;100.00;100018.09;1697198;85;21062;-70
2022/01/27 04:29:03;;;;;;;71.83;36.80;;;;;;;-7.87;100.00;100018.66;1695868;85;21022;-70
2022/01/27 04:31:31;;;;;;;72.33;36.73;;;;;;;-7.90;100.00;100017.45;1696862;84;21074;-68
2022/01/27 04:33:59;;;;;;;88.87;40.37;;;;;;;-7.92;100.00;100014.03;1686474;85;21093;-68
2022/01/27 04:41:51;;;;;;;131.20;51.93;;;;;;;-7.97;100.00;100029.93;1621811;87;21599;-70
2022/01/27 04:44:22;;;;;;;98.90;50.87;;;;;;;-7.97;100.00;100035.64;1602710;88;21061;-71
2022/01/27 04:47:04;;;;;;;101.40;54.80;;;;;;;-8.01;100.00;100041.45;1620832;88;21569;-70
2022/01/27 04:49:25;;;;;;;91.00;48.17;;;;;;;-8.02;100.00;100039.30;1620328;88;21094;-69
2022/01/27 04:51:53;;;;;;;75.17;41.00;;;;;;;-8.01;100.00;100044.92;1620491;87;21098;-69
2022/01/27 04:54:26;;;;;;;74.47;38.83;;;;;;;-7.99;100.00;100044.03;1620675;88;21621;-69
2022/01/27 04:56:50;;;;;;;86.30;43.37;;;;;;;-8.00;100.00;100040.56;1620566;88;21113;-67
2022/01/27 05:04:22;;;;;;;93.65;42.13;;;;;;;-8.09;100.00;100052.23;1651654;86;21012;-68
2022/01/27 05:06:49;;;;;;;82.97;40.83;;;;;;;-8.14;100.00;100053.27;1668299;86;21000;-69
2022/01/27 05:09:16;;;;;;;81.53;40.87;;;;;;;-8.17;100.00;100058.65;1668248;85;21048;-68
2022/01/27 05:11:55;;;;;;;72.23;37.17;;;;;;;-8.21;100.00;100062.68;1668390;86;21265;-69
2022/01/27 05:16:50;;;;;;;62.93;34.73;;;;;;;-8.26;100.00;100063.28;1645755;87;21149;-70
2022/01/27 05:19:18;;;;;;;63.00;34.33;;;;;;;-8.29;100.00;100074.34;1645772;86;21118;-69
2022/01/27 05:21:45;;;;;;;65.17;35.77;;;;;;;-8.29;100.00;100070.41;1645780;87;21086;-71
2022/01/27 05:24:13;;;;;;;71.27;36.03;;;;;;;-8.26;100.00;100079.03;1645848;86;21531;-68
2022/01/27 05:26:40;;;;;;;94.83;41.67;;;;;;;-8.21;100.00;100081.05;1645878;86;21071;-69
2022/01/27 05:29:14;;;;;;;80.10;39.13;;;;;;;-8.13;100.00;100081.23;1645742;87;21051;-67
2022/01/27 05:31:46;;;;;;;65.83;37.10;;;;;;;-8.08;100.00;100078.00;1645823;87;21111;-69
2022/01/27 05:34:13;;;;;;;78.30;39.27;;;;;;;-8.04;100.00;100073.05;1645700;86;21532;-67
2022/01/27 05:36:40;;;;;;;80.37;39.67;;;;;;;-8.01;100.00;100075.11;1626567;86;21369;-69
2022/01/27 05:39:07;;;;;;;75.97;38.53;;;;;;;-7.97;100.00;100073.70;1614620;87;21126;-68
2022/01/27 05:41:34;;;;;;;80.70;39.70;;;;;;;-7.94;100.00;100073.59;1615394;86;21104;-70
2022/01/27 05:44:01;;;;;;;81.60;42.70;;;;;;;-7.92;100.00;100071.31;1649394;87;21062;-68
2022/01/27 05:46:28;;;;;;;68.50;37.37;;;;;;;-7.88;100.00;100078.63;1627525;88;21043;-68
2022/01/27 05:48:55;;;;;;;62.50;36.13;;;;;;;-7.84;100.00;100075.00;1598091;88;21078;-70
2022/01/27 05:51:22;;;;;;;84.10;40.27;;;;;;;-7.78;100.00;100078.70;1595934;90;21548;-69
2022/01/27 05:53:50;;;;;;;74.67;39.23;;;;;;;-7.73;100.00;100075.47;1619196;87;21166;-69
2022/01/27 05:56:17;;;;;;;75.03;39.37;;;;;;;-7.68;100.00;100077.47;1589815;90;21166;-67
2022/01/27 05:58:44;;;;;;;82.27;46.33;;;;;;;-7.65;100.00;100075.18;1623598;88;21045;-70
2022/01/27 06:01:12;;;;;;;76.77;39.53;;;;;;;-7.63;100.00;100072.07;1639680;87;21064;-70
2022/01/27 06:03:43;;;;;;;79.90;44.70;;;;;;;-7.59;100.00;100070.19;1641810;86;21017;-69
2022/01/27 06:06:10;;;;;;;95.27;53.77;;;;;;;-7.57;100.00;100071.83;1613519;87;21644;-68
2022/01/27 06:08:39;;;;;;;76.27;44.13;;;;;;;-7.54;100.00;100073.05;1611237;87;21574;-69
2022/01/27 06:11:06;;;;;;;67.10;39.40;;;;;;;-7.49;100.00;100062.34;1620661;87;21048;-68
2022/01/27 06:13:35;;;;;;;73.17;40.07;;;;;;;-7.45;100.00;100060.87;1618070;86;21002;-70
2022/01/27 06:16:09;;;;;;;74.33;39.43;;;;;;;-7.40;100.00;100055.47;1660884;86;21089;-68
2022/01/27 06:18:34;;;;;;;82.23;42.73;;;;;;;-7.34;100.00;100057.00;1662039;85;21065;-69
2022/01/27 06:21:03;;;;;;;84.77;43.77;;;;;;;-7.30;100.00;100059.44;1665229;86;21030;-70
2022/01/27 06:23:31;;;;;;;86.80;44.13;;;;;;;-7.26;100.00;100055.80;1611359;88;21086;-69
2022/01/27 06:26:01;;;;;;;80.20;45.57;;;;;;;-7.22;100.00;100052.59;1619552;86;21077;-70
2022/01/27 06:28:30;;;;;;;76.43;43.07;;;;;;;-7.18;100.00;100055.50;1644406;86;21010;-67
2022/01/27 06:30:57;;;;;;;97.73;53.90;;;;;;;-7.13;100.00;100057.50;1648038;86;21050;-68
2022/01/27 06:33:32;;;;;;;101.17;52.77;;;;;;;-7.07;100.00;100058.56;1642459;86;21057;-69
2022/01/27 06:36:00;;;;;;;118.60;67.90;;;;;;;-7.00;100.00;100059.19;1648247;86;21088;-68
2022/01/27 06:38:27;;;;;;;122.27;67.37;;;;;;;-6.94;100.00;100048.89;1646975;86;21490;-69
2022/01/27 06:40:54;;;;;;;201.80;109.20;;;;;;;-6.87;100.00;100053.86;1660478;84;21080;-69
2022/01/27 06:43:21;;;;;;;106.17;58.80;;;;;;;-6.79;100.00;100046.98;1673983;85;20965;-68
2022/01/27 06:45:48;;;;;;;103.93;60.40;;;;;;;-6.71;100.00;100049.29;1656959;85;21154;-69
2022/01/27 06:48:16;;;;;;;114.57;62.13;;;;;;;-6.65;100.00;100053.47;1642066;85;21089;-68
2022/01/27 06:50:45;;;;;;;85.33;46.47;;;;;;;-6.60;100.00;100054.99;1662917;85;21041;-70
2022/01/27 06:53:12;;;;;;;104.50;56.77;;;;;;;-6.54;100.00;100057.83;1674348;84;21022;-70
2022/01/27 06:55:39;;;;;;;79.80;45.77;;;;;;;-6.52;100.00;100058.14;1680637;85;21014;-69
2022/01/27 06:58:06;;;;;;;80.03;45.83;;;;;;;-6.50;100.00;100060.28;1656946;83;21037;-68
2022/01/27 07:00:33;;;;;;;79.77;44.77;;;;;;;-6.41;100.00;100064.75;1659013;85;20966;-67
2022/01/27 07:03:00;;;;;;;76.63;42.23;;;;;;;-6.37;100.00;100061.09;1677151;83;21094;-70
2022/01/27 07:05:31;;;;;;;75.93;42.53;;;;;;;-6.30;100.00;100058.14;1675522;84;21026;-68
2022/01/27 07:07:57;;;;;;;90.43;50.60;;;;;;;-6.27;100.00;100062.88;1652276;85;21053;-68
2022/01/27 07:10:25;;;;;;;70.50;39.77;;;;;;;-6.20;100.00;100057.27;1677777;84;21017;-70
2022/01/27 07:12:52;;;;;;;84.43;48.57;;;;;;;-6.14;100.00;100062.77;1656894;85;20998;-68
2022/01/27 07:15:21;;;;;;;140.20;75.53;;;;;;;-6.13;100.00;100057.87;1654398;85;21017;-69
2022/01/27 07:17:48;;;;;;;197.73;97.60;;;;;;;-6.10;100.00;100064.34;1672593;83;21510;-69
2022/01/27 07:20:17;;;;;;;126.60;66.80;;;;;;;-6.01;100.00;100068.36;1672597;85;22181;-68
2022/01/27 07:22:44;;;;;;;133.97;63.00;;;;;;;-5.88;100.00;100066.02;1673603;85;21038;-70
2022/01/27 07:25:11;;;;;;;110.27;57.37;;;;;;;-5.83;100.00;100060.94;1668917;85;21051;-70
2022/01/27 07:27:39;;;;;;;121.10;66.90;;;;;;;-5.79;100.00;100065.61;1676342;84;21511;-70
2022/01/27 07:30:08;;;;;;;105.77;55.03;;;;;;;-5.78;100.00;100066.87;1672588;85;21464;-70
2022/01/27 07:32:38;;;;;;;91.40;48.63;;;;;;;-5.70;100.00;100073.58;1659794;85;21062;-69
2022/01/27 07:35:07;;;;;;;115.77;58.77;;;;;;;-5.68;100.00;100071.72;1677198;85;21066;-69
2022/01/27 07:37:36;;;;;;;113.07;63.40;;;;;;;-5.68;100.00;100077.87;1657327;83;20997;-70
2022/01/27 07:40:04;;;;;;;85.93;47.10;;;;;;;-5.65;100.00;100082.14;1678071;85;21060;-68
2022/01/27 07:42:31;;;;;;;135.67;72.87;;;;;;;-5.60;100.00;100080.16;1685273;83;21025;-69
2022/01/27 07:44:58;;;;;;;96.20;54.70;;;;;;;-5.50;100.00;100076.20;1685083;85;21029;-70
2022/01/27 07:47:25;;;;;;;91.50;50.40;;;;;;;-5.39;100.00;100071.77;1653755;85;21001;-68
2022/01/27 07:49:52;;;;;;;86.07;50.13;;;;;;;-5.38;100.00;100078.29;1652676;85;21025;-70
2022/01/27 07:52:20;;;;;;;82.00;46.03;;;;;;;-5.34;100.00;100084.27;1672127;85;21069;-68
2022/01/27 07:54:48;;;;;;;70.00;39.90;;;;;;;-5.30;100.00;100084.99;1654625;85;21040;-67
2022/01/27 07:57:15;;;;;;;210.43;96.33;;;;;;;-5.22;100.00;100090.78;1674641;85;21053;-69
2022/01/27 07:59:42;;;;;;;112.47;57.97;;;;;;;-5.17;100.00;100094.91;1664713;85;21009;-68
2022/01/27 08:02:09;;;;;;;76.13;43.77;;;;;;;-5.10;100.00;100094.15;1661069;85;21040;-68
2022/01/27 08:04:36;;;;;;;57.47;34.23;;;;;;;-5.03;100.00;100096.92;1657984;85;21072;-69
2022/01/27 08:07:04;;;;;;;54.73;32.97;;;;;;;-4.99;100.00;100095.00;1650529;85;21029;-70
2022/01/27 08:09:33;;;;;;;54.37;31.93;;;;;;;-4.94;100.00;100102.20;1675535;85;21008;-68
2022/01/27 08:12:02;;;;;;;58.03;35.30;;;;;;;-4.89;100.00;100108.60;1676087;84;21055;-69
2022/01/27 08:14:33;;;;;;;50.10;31.40;;;;;;;-4.83;100.00;100107.02;1663960;86;21707;-70
2022/01/27 08:17:08;;;;;;;74.97;50.23;;;;;;;-4.74;100.00;100109.69;1661948;86;21036;-69
2022/01/27 08:19:35;;;;;;;51.00;31.13;;;;;;;-4.64;100.00;100106.98;1639470;86;21055;-69
2022/01/27 08:22:02;;;;;;;59.87;40.43;;;;;;;-4.53;100.00;100103.83;1658559;85;21041;-69
2022/01/27 08:24:31;;;;;;;54.47;33.90;;;;;;;-4.46;100.00;100101.28;1664518;85;21016;-69
2022/01/27 08:27:03;;;;;;;49.23;29.70;;;;;;;-4.37;100.00;100114.50;1668680;85;21051;-71
2022/01/27 08:29:41;;;;;;;44.80;25.80;;;;;;;-4.39;100.00;100111.48;1644988;85;21040;-69
2022/01/27 08:32:15;;;;;;;78.33;57.30;;;;;;;-4.44;100.00;100106.05;1663305;85;21028;-72
2022/01/27 08:37:11;;;;;;;45.03;25.90;;;;;;;-4.44;100.00;100118.77;1609253;88;20999;-64
2022/01/27 08:39:38;;;;;;;47.83;28.47;;;;;;;-4.35;100.00;100119.27;1608417;88;21100;-71
2022/01/27 08:42:07;;;;;;;48.77;27.27;;;;;;;-4.30;100.00;100119.42;1603956;88;21059;-70
2022/01/27 08:44:36;;;;;;;50.13;32.10;;;;;;;-4.20;100.00;100117.17;1600597;88;21171;-69
2022/01/27 08:47:04;;;;;;;49.60;30.10;;;;;;;-4.10;100.00;100121.08;1601530;88;21496;-70
2022/01/27 08:49:33;;;;;;;56.90;32.80;;;;;;;-4.05;100.00;100120.86;1587251;89;21577;-68
2022/01/27 08:52:02;;;;;;;41.97;25.27;;;;;;;-4.01;100.00;100116.66;1600694;89;21054;-68
2022/01/27 08:54:29;;;;;;;68.57;41.77;;;;;;;-3.95;100.00;100119.45;1602282;89;21081;-68
2022/01/27 08:56:56;;;;;;;48.53;28.83;;;;;;;-3.85;100.00;100120.70;1634467;87;21799;-69
2022/01/27 08:59:23;;;;;;;42.40;25.27;;;;;;;-3.76;100.00;100119.39;1614303;88;21027;-69
2022/01/27 09:01:51;;;;;;;45.30;26.40;;;;;;;-3.72;100.00;100127.56;1609548;88;21613;-70
2022/01/27 09:04:18;;;;;;;44.80;24.73;;;;;;;-3.73;100.00;100128.48;1608293;88;21083;-71
2022/01/27 09:06:46;;;;;;;44.23;26.47;;;;;;;-3.72;100.00;100124.92;1594147;89;21049;-68
2022/01/27 09:09:13;;;;;;;42.83;25.63;;;;;;;-3.71;100.00;100129.26;1630460;86;20989;-71
2022/01/27 09:11:43;;;;;;;39.40;22.97;;;;;;;-3.67;100.00;100128.16;1619941;87;21041;-69
2022/01/27 09:14:18;;;;;;;59.70;37.83;;;;;;;-3.62;100.00;100124.81;1641074;86;21055;-70
2022/01/27 09:16:45;;;;;;;71.53;44.30;;;;;;;-3.55;100.00;100126.69;1644052;86;21027;-69
2022/01/27 09:19:12;;;;;;;49.97;31.00;;;;;;;-3.52;100.00;100129.18;1614481;86;21018;-70
2022/01/27 09:21:46;;;;;;;41.40;24.47;;;;;;;-3.47;100.00;100140.81;1643583;86;21567;-69
2022/01/27 09:24:16;;;;;;;35.63;20.97;;;;;;;-3.44;100.00;100138.02;1637196;86;21047;-69
2022/01/27 09:29:14;;;;;;;41.00;23.83;;;;;;;-3.35;100.00;100140.66;1635415;87;21003;-69
2022/01/27 09:31:41;;;;;;;39.43;23.37;;;;;;;-3.34;100.00;100133.13;1640699;87;21612;-70
2022/01/27 09:34:08;;;;;;;34.60;20.00;;;;;;;-3.32;100.00;100132.58;1667505;84;21029;-71
2022/01/27 09:36:35;;;;;;;42.90;27.13;;;;;;;-3.18;100.00;100139.78;1686234;84;21024;-68
2022/01/27 09:39:03;;;;;;;33.30;18.87;;;;;;;-3.19;100.00;100134.94;1686289;84;21070;-70
2022/01/27 09:41:30;;;;;;;36.20;20.00;;;;;;;-3.11;100.00;100131.91;1657370;86;21108;-71
2022/01/27 09:43:58;;;;;;;33.87;18.73;;;;;;;-3.02;100.00;100123.47;1624321;87;21079;-68
2022/01/27 09:46:32;;;;;;;32.47;18.47;;;;;;;-2.98;100.00;100129.45;1638959;87;21044;-68
2022/01/27 09:49:11;;;;;;;34.17;20.30;;;;;;;-2.98;100.00;100124.16;1643737;86;21036;-69
2022/01/27 09:51:40;;;;;;;38.87;20.90;;;;;;;-2.87;100.00;100125.75;1636712;86;21086;-70
2022/01/27 09:54:06;;;;;;;63.37;32.87;;;;;;;-2.80;100.00;100127.12;1647668;86;21034;-71
2022/01/27 09:56:34;;;;;;;44.10;23.77;;;;;;;-2.69;100.00;100126.56;1649166;86;21056;-68
2022/01/27 09:59:03;;;;;;;55.23;34.73;;;;;;;-2.55;100.00;100134.59;1658718;86;21041;-71
2022/01/27 10:01:30;;;;;;;39.80;22.80;;;;;;;-2.41;100.00;100132.47;1660092;85;21288;-71
2022/01/27 10:04:01;;;;;;;34.57;19.53;;;;;;;-2.26;100.00;100136.55;1646217;86;21517;-66
2022/01/27 10:06:31;;;;;;;35.47;19.97;;;;;;;-2.26;100.00;100133.89;1620788;87;21021;-68
2022/01/27 10:09:25;;;;;;;42.30;22.87;;;;;;;-2.29;100.00;100147.67;1662431;86;22197;-70
2022/01/27 10:11:50;;;;;;;28.10;16.27;;;;;;;-2.30;100.00;100148.63;1665626;84;21005;-69
2022/01/27 10:14:34;;;;;;;29.17;15.50;;;;;;;-2.26;100.00;100153.77;1645685;86;21079;-68
2022/01/27 10:17:03;;;;;;;29.90;17.77;;;;;;;-2.23;100.00;100158.86;1661921;86;21061;-69
2022/01/27 10:19:35;;;;;;;26.23;14.80;;;;;;;-2.26;100.00;100160.38;1650514;85;21044;-68
2022/01/27 10:22:01;;;;;;;36.07;18.13;;;;;;;-2.32;100.00;100168.18;1634029;87;20973;-68
2022/01/27 10:24:32;;;;;;;28.97;14.47;;;;;;;-2.40;100.00;100170.42;1636730;87;21040;-69
2022/01/27 10:27:55;;;;;;;25.27;13.67;;;;;;;-2.44;100.00;100176.36;1658589;84;21006;-70
2022/01/27 10:32:59;;;;;;;26.47;14.23;;;;;;;-2.39;100.00;100173.44;1643855;86;21011;-69
2022/01/27 10:35:28;;;;;;;24.13;12.07;;;;;;;-2.37;100.00;100179.53;1647873;86;21072;-68
2022/01/27 10:38:07;;;;;;;23.03;12.33;;;;;;;-2.44;100.00;100180.33;1639101;86;21036;-69
2022/01/27 10:40:38;;;;;;;20.80;10.97;;;;;;;-2.59;100.00;100187.78;1649163;86;21063;-71
2022/01/27 10:43:24;;;;;;;20.77;10.00;;;;;;;-2.78;100.00;100203.34;1697903;83;21021;-69
2022/01/27 10:46:21;;;;;;;19.77;9.93;;;;;;;-2.87;100.00;100195.88;1663591;85;21047;-69
2022/01/27 10:48:47;;;;;;;97.30;59.13;;;;;;;-2.91;100.00;100203.59;1594328;89;20996;-69
2022/01/27 10:51:20;;;;;;;42.62;26.25;;;;;;;-2.90;100.00;100195.58;1510821;93;22340;-70
2022/01/27 10:54:06;;;;;;;23.67;11.75;;;;;;;-2.84;100.00;100197.05;1509307;92;21810;-69
2022/01/27 10:56:38;;;;;;;50.17;31.07;;;;;;;-2.76;100.00;100200.59;1528330;92;21581;-70
2022/01/27 10:59:15;;;;;;;29.60;16.93;;;;;;;-2.77;100.00;100198.90;1495788;95;21067;-69
2022/01/27 11:01:45;;;;;;;21.67;9.87;;;;;;;-2.82;100.00;100204.42;1477901;96;21640;-69
2022/01/27 11:04:13;;;;;;;35.50;21.00;;;;;;;-2.79;100.00;100206.07;1475615;96;21085;-67
2022/01/27 11:06:58;;;;;;;25.57;14.00;;;;;;;-2.60;100.00;100207.23;1486542;95;21163;-70
2022/01/27 11:09:27;;;;;;;11.60;6.60;;;;;;;-2.31;100.00;100201.69;1473768;96;21165;-70
2022/01/27 11:11:56;;;;;;;9.77;4.37;;;;;;;-2.00;100.00;100207.45;1478982;96;21050;-70
2022/01/27 11:14:25;;;;;;;12.33;4.93;;;;;;;-1.95;100.00;100209.38;1477395;96;21113;-69
2022/01/27 11:16:59;;;;;;;12.67;5.57;;;;;;;-2.05;100.00;100215.25;1477853;96;21113;-71
2022/01/27 11:19:54;;;;;;;17.83;8.80;;;;;;;-2.15;100.00;100218.91;1487768;96;21121;-71
2022/01/27 11:27:26;;;;;;;22.43;10.53;;;;;;;-1.94;100.00;100211.55;1433752;99;21113;-70
2022/01/27 11:30:11;;;;;;;32.63;15.43;;;;;;;-1.93;100.00;100215.44;1428022;99;21138;-69
2022/01/27 11:33:04;;;;;;;47.20;20.43;;;;;;;-1.99;100.00;100209.63;1435668;99;21676;-68
2022/01/27 11:35:32;;;;;;;43.47;19.40;;;;;;;-2.08;100.00;100200.88;1433300;99;21224;-69
2022/01/27 11:38:03;;;;;;;54.33;22.50;;;;;;;-2.21;100.00;100199.36;1423892;99;21070;-69
2022/01/27 11:40:46;;;;;;;35.27;16.13;;;;;;;-2.25;100.00;100191.21;1426717;99;21628;-70
2022/01/27 11:43:15;;;;;;;29.83;12.57;;;;;;;-2.40;100.00;100191.61;1451698;97;21153;-69
2022/01/27 11:45:49;;;;;;;53.70;23.97;;;;;;;-2.69;100.00;100191.41;1451651;97;21137;-69
2022/01/27 11:48:22;;;;;;;52.67;22.03;;;;;;;-2.72;100.00;100191.57;1463240;97;21094;-71
2022/01/27 11:50:51;;;;;;;86.40;31.83;;;;;;;-2.77;100.00;100191.80;1454507;97;21086;-70
2022/01/27 11:56:30;;;;;;;60.50;21.23;;;;;;;-2.83;100.00;100190.83;1468712;97;21657;-71
2022/01/27 11:58:59;;;;;;;57.70;20.63;;;;;;;-2.74;100.00;100186.35;1451494;98;21775;-70
2022/01/27 12:01:30;;;;;;;63.63;22.30;;;;;;;-2.90;100.00;100194.73;1450745;98;21104;-70
2022/01/27 12:04:09;;;;;;;90.70;30.48;;;;;;;-2.99;100.00;100196.08;1459025;98;21182;-69
2022/01/27 12:06:55;;;;;;;86.10;34.20;;;;;;;-3.00;100.00;100189.54;1444966;98;21128;-70
2022/01/27 12:09:25;;;;;;;59.90;25.03;;;;;;;-2.99;100.00;100182.84;1457246;98;21034;-68
2022/01/27 12:12:14;;;;;;;41.73;23.50;;;;;;;-2.91;100.00;100179.30;1454743;98;21137;-70
2022/01/27 12:14:49;;;;;;;40.73;18.70;;;;;;;-2.74;100.00;100171.80;1417903;99;21429;-70
2022/01/27 12:17:20;;;;;;;41.27;19.53;;;;;;;-2.64;100.00;100178.75;1438467;99;21098;-70
2022/01/27 12:20:03;;;;;;;29.80;15.97;;;;;;;-2.76;100.00;100184.70;1432731;99;21157;-68
2022/01/27 12:22:50;;;;;;;20.93;10.50;;;;;;;-2.72;100.00;100186.28;1422242;100;21159;-69
2022/01/27 12:25:15;;;;;;;24.30;11.13;;;;;;;-2.59;100.00;100184.66;1502610;95;21216;-70